createdAt,value
2023-04-01T00:00:36.170Z,50.27
2023-04-01T00:01:36.140Z,52.03
2023-04-01T00:02:36.212Z,49.87
2023-04-01T00:03:36.305Z,50.50
2023-04-01T00:04:36.263Z,51.19
2023-04-01T00:05:36.203Z,48.51
2023-04-01T00:06:36.209Z,51.56
2023-04-01T00:07:36.251Z,51.77
2023-04-01T00:08:36.258Z,49.99
2023-04-01T00:09:36.273Z,50.24
2023-04-01T00:10:36.273Z,51.54
2023-04-01T00:11:36.353Z,52.99
2023-04-01T00:12:36.386Z,52.57
2023-04-01T00:13:36.380Z,51.00
2023-04-01T00:14:36.397Z,50.25
2023-04-01T00:15:36.471Z,53.52
2023-04-01T00:16:36.432Z,52.61
2023-04-01T00:17:36.494Z,52.26
2023-04-01T00:18:36.448Z,52.86
2023-04-01T00:19:36.456Z,53.01
2023-04-01T00:20:36.509Z,53.30
2023-04-01T00:21:36.511Z,52.33
2023-04-01T00:22:36.540Z,52.12
2023-04-01T00:23:36.599Z,50.36
2023-04-01T00:24:36.604Z,50.98
2023-04-01T00:25:36.609Z,49.76
2023-04-01T00:26:36.651Z,51.90
2023-04-01T00:27:36.670Z,52.39
2023-04-01T00:28:36.664Z,53.09
2023-04-01T00:29:36.682Z,50.97
2023-04-01T00:30:36.718Z,50.60
2023-04-01T00:31:36.872Z,52.63
2023-04-01T00:32:36.776Z,52.19
2023-04-01T00:33:36.845Z,52.21
2023-04-01T00:34:36.813Z,52.14
2023-04-01T00:35:36.826Z,49.77
2023-04-01T00:36:36.866Z,50.92
2023-04-01T00:37:36.868Z,49.55
2023-04-01T00:38:36.914Z,48.64
2023-04-01T00:39:36.926Z,50.14
2023-04-01T00:40:36.930Z,49.42
2023-04-01T00:41:36.933Z,49.57
2023-04-01T00:42:36.977Z,51.78
2023-04-01T00:43:36.983Z,51.49
2023-04-01T00:44:37.015Z,51.15
2023-04-01T00:45:37.075Z,52.31
2023-04-01T00:46:37.103Z,50.81
2023-04-01T00:47:37.097Z,50.36
2023-04-01T00:48:37.119Z,51.05
2023-04-01T00:49:37.135Z,51.59
2023-04-01T00:50:37.127Z,52.05
2023-04-01T00:51:37.181Z,52.78
2023-04-01T00:52:37.186Z,53.09
2023-04-01T00:53:37.210Z,51.58
2023-04-01T00:54:37.292Z,49.89
2023-04-01T00:55:37.298Z,52.70
2023-04-01T00:56:37.299Z,48.79
2023-04-01T00:57:37.313Z,50.92
2023-04-01T00:58:37.346Z,50.99
2023-04-01T00:59:37.385Z,51.32
2023-04-01T01:00:37.516Z,51.95
2023-04-01T01:01:37.446Z,51.10
2023-04-01T01:02:37.725Z,51.59
2023-04-01T01:03:37.535Z,51.18
2023-04-01T01:04:37.536Z,49.78
2023-04-01T01:05:48.469Z,49.98
2023-04-01T01:06:38.608Z,50.22
2023-04-01T01:07:37.539Z,50.65
2023-04-01T01:08:37.553Z,50.53
2023-04-01T01:09:37.533Z,52.42
2023-04-01T01:10:37.555Z,51.93
2023-04-01T01:11:43.241Z,49.05
2023-04-01T01:12:38.546Z,49.39
2023-04-01T01:13:37.528Z,49.87
2023-04-01T01:14:37.501Z,50.51
2023-04-01T01:15:37.500Z,50.20
2023-04-01T01:16:37.533Z,52.04
2023-04-01T01:17:37.510Z,51.37
2023-04-01T01:18:37.451Z,50.46
2023-04-01T01:19:37.454Z,50.29
2023-04-01T01:20:37.448Z,50.89
2023-04-01T01:21:37.439Z,49.44
2023-04-01T01:22:37.437Z,50.67
2023-04-01T01:23:37.452Z,51.70
2023-04-01T01:24:37.420Z,49.10
2023-04-01T01:25:37.443Z,50.49
2023-04-01T01:26:37.419Z,50.85
2023-04-01T01:27:37.423Z,49.96
2023-04-01T01:28:37.377Z,51.37
2023-04-01T01:29:37.439Z,51.25
2023-04-01T01:30:37.531Z,50.98
2023-04-01T01:31:37.508Z,53.07
2023-04-01T01:32:37.556Z,52.90
2023-04-01T01:33:37.555Z,51.39
2023-04-01T01:34:37.604Z,50.97
2023-04-01T01:35:37.608Z,51.65
2023-04-01T01:36:37.689Z,51.06
2023-04-01T01:37:37.698Z,50.06
2023-04-01T01:38:37.711Z,52.06
2023-04-01T01:39:37.713Z,53.69
2023-04-01T01:40:37.744Z,49.34
2023-04-01T01:41:37.776Z,49.62
2023-04-01T01:42:37.809Z,49.78
2023-04-01T01:43:37.880Z,48.16
2023-04-01T01:44:37.837Z,49.61
2023-04-01T01:45:37.899Z,50.99
2023-04-01T01:46:38.042Z,50.30
2023-04-01T01:47:37.947Z,51.47
2023-04-01T01:48:37.963Z,50.38
2023-04-01T01:49:38.008Z,50.08
2023-04-01T01:50:38.025Z,49.61
2023-04-01T01:51:38.035Z,51.86
2023-04-01T01:52:38.104Z,49.50
2023-04-01T01:53:38.116Z,51.05
2023-04-01T01:54:38.111Z,49.23
2023-04-01T01:55:38.115Z,48.16
2023-04-01T01:56:38.145Z,49.27
2023-04-01T01:57:38.203Z,48.85
2023-04-01T01:58:38.239Z,50.74
2023-04-01T01:59:38.213Z,50.56
2023-04-01T02:00:38.299Z,50.24
2023-04-01T02:01:38.277Z,48.93
2023-04-01T02:02:38.404Z,49.68
2023-04-01T02:03:38.361Z,49.12
2023-04-01T02:04:38.440Z,48.71
2023-04-01T02:05:38.388Z,48.93
2023-04-01T02:06:38.430Z,49.65
2023-04-01T02:07:38.465Z,50.13
2023-04-01T02:08:38.442Z,51.16
2023-04-01T02:09:38.476Z,50.08
2023-04-01T02:10:38.518Z,47.98
2023-04-01T02:11:38.558Z,52.55
2023-04-01T02:12:38.600Z,49.53
2023-04-01T02:13:38.598Z,49.64
2023-04-01T02:14:38.611Z,49.99
2023-04-01T02:15:38.656Z,48.42
2023-04-01T02:16:38.620Z,48.59
2023-04-01T02:17:38.712Z,49.85
2023-04-01T02:18:38.684Z,47.80
2023-04-01T02:19:38.730Z,49.68
2023-04-01T02:20:38.723Z,50.47
2023-04-01T02:21:38.760Z,49.10
2023-04-01T02:22:38.805Z,47.06
2023-04-01T02:23:38.845Z,49.55
2023-04-01T02:24:38.900Z,45.98
2023-04-01T02:25:38.892Z,49.55
2023-04-01T02:26:38.937Z,50.56
2023-04-01T02:27:38.963Z,49.80
2023-04-01T02:28:38.993Z,48.57
2023-04-01T02:29:38.999Z,48.55
2023-04-01T02:30:39.040Z,50.82
2023-04-01T02:31:39.098Z,50.00
2023-04-01T02:32:39.158Z,47.51
2023-04-01T02:33:39.087Z,49.46
2023-04-01T02:34:39.119Z,50.47
2023-04-01T02:35:39.138Z,49.06
2023-04-01T02:36:39.182Z,47.34
2023-04-01T02:37:40.359Z,46.44
2023-04-01T02:38:39.270Z,48.44
2023-04-01T02:39:39.278Z,49.77
2023-04-01T02:40:39.285Z,49.62
2023-04-01T02:41:39.326Z,45.88
2023-04-01T02:42:39.362Z,50.00
2023-04-01T02:43:39.401Z,49.41
2023-04-01T02:44:39.436Z,48.24
2023-04-01T02:45:39.480Z,49.09
2023-04-01T02:46:39.500Z,50.54
2023-04-01T02:47:39.550Z,50.06
2023-04-01T02:48:39.537Z,49.07
2023-04-01T02:49:39.531Z,47.09
2023-04-01T02:50:39.624Z,47.98
2023-04-01T02:51:39.634Z,49.22
2023-04-01T02:52:39.635Z,48.18
2023-04-01T02:53:39.673Z,48.47
2023-04-01T02:54:39.703Z,50.49
2023-04-01T02:55:39.757Z,49.14
2023-04-01T02:56:39.795Z,50.44
2023-04-01T02:57:39.829Z,48.44
2023-04-01T02:58:39.858Z,46.51
2023-04-01T02:59:39.888Z,48.02
2023-04-01T03:00:39.878Z,47.71
2023-04-01T03:01:39.955Z,48.68
2023-04-01T03:02:40.114Z,47.56
2023-04-01T03:03:40.016Z,48.88
2023-04-01T03:04:40.040Z,48.47
2023-04-01T03:05:40.066Z,45.96
2023-04-01T03:06:40.100Z,47.13
2023-04-01T03:07:40.150Z,47.69
2023-04-01T03:08:40.187Z,49.24
2023-04-01T03:09:40.247Z,47.05
2023-04-01T03:10:40.256Z,49.83
2023-04-01T03:11:40.313Z,47.94
2023-04-01T03:12:40.312Z,47.60
2023-04-01T03:13:40.355Z,46.52
2023-04-01T03:14:40.396Z,48.43
2023-04-01T03:15:40.397Z,47.75
2023-04-01T03:16:40.527Z,46.72
2023-04-01T03:17:40.493Z,46.63
2023-04-01T03:18:40.523Z,47.04
2023-04-01T03:19:40.567Z,46.88
2023-04-01T03:20:40.607Z,47.71
2023-04-01T03:21:40.661Z,46.87
2023-04-01T03:22:42.708Z,47.11
2023-04-01T03:23:40.723Z,46.09
2023-04-01T03:24:40.721Z,44.92
2023-04-01T03:25:40.784Z,46.97
2023-04-01T03:26:40.773Z,47.77
2023-04-01T03:27:40.847Z,48.69
2023-04-01T03:28:40.826Z,45.98
2023-04-01T03:29:40.932Z,46.59
2023-04-01T03:30:40.940Z,47.43
2023-04-01T03:31:40.980Z,47.00
2023-04-01T03:32:41.032Z,47.11
2023-04-01T03:33:41.034Z,48.27
2023-04-01T03:34:41.101Z,47.71
2023-04-01T03:35:41.100Z,45.28
2023-04-01T03:36:41.147Z,46.65
2023-04-01T03:37:41.164Z,46.14
2023-04-01T03:38:41.213Z,49.50
2023-04-01T03:39:42.110Z,43.33
2023-04-01T03:40:41.215Z,45.99
2023-04-01T03:41:41.281Z,46.57
2023-04-01T03:42:41.428Z,48.39
2023-04-01T03:43:41.343Z,47.25
2023-04-01T03:44:41.409Z,47.25
2023-04-01T03:45:41.425Z,46.15
2023-04-01T03:46:41.664Z,45.95
2023-04-01T03:47:41.576Z,48.14
2023-04-01T03:48:41.541Z,45.72
2023-04-01T03:49:41.634Z,46.40
2023-04-01T03:50:41.623Z,46.59
2023-04-01T03:51:41.659Z,46.82
2023-04-01T03:52:41.683Z,46.13
2023-04-01T03:53:41.783Z,45.74
2023-04-01T03:54:41.725Z,45.37
2023-04-01T03:55:41.821Z,47.65
2023-04-01T03:56:41.812Z,47.58
2023-04-01T03:57:41.872Z,45.07
2023-04-01T03:58:41.914Z,48.95
2023-04-01T03:59:41.914Z,45.95
2023-04-01T04:00:41.948Z,49.82
2023-04-01T04:01:41.978Z,48.37
2023-04-01T04:02:42.079Z,46.40
2023-04-01T04:03:42.147Z,47.62
2023-04-01T04:04:42.235Z,47.97
2023-04-01T04:05:42.124Z,48.41
2023-04-01T04:06:42.147Z,48.24
2023-04-01T04:07:42.179Z,49.88
2023-04-01T04:08:42.264Z,45.88
2023-04-01T04:09:42.239Z,47.05
2023-04-01T04:10:42.276Z,46.35
2023-04-01T04:11:42.308Z,48.34
2023-04-01T04:12:42.430Z,47.42
2023-04-01T04:13:42.426Z,45.68
2023-04-01T04:14:42.457Z,46.92
2023-04-01T04:15:42.513Z,45.83
2023-04-01T04:16:42.503Z,42.92
2023-04-01T04:17:42.625Z,44.84
2023-04-01T04:18:42.585Z,44.98
2023-04-01T04:19:42.615Z,46.29
2023-04-01T04:20:42.610Z,45.03
2023-04-01T04:21:42.689Z,46.29
2023-04-01T04:22:42.750Z,46.93
2023-04-01T04:23:42.769Z,44.37
2023-04-01T04:24:42.785Z,43.91
2023-04-01T04:25:42.825Z,45.69
2023-04-01T04:26:42.860Z,46.24
2023-04-01T04:27:42.936Z,44.67
2023-04-01T04:28:42.943Z,44.61
2023-04-01T04:29:42.992Z,44.23
2023-04-01T04:30:43.058Z,43.80
2023-04-01T04:31:43.127Z,44.54
2023-04-01T04:32:43.139Z,44.62
2023-04-01T04:33:43.100Z,44.44
2023-04-01T04:34:43.190Z,44.06
2023-04-01T04:35:43.160Z,45.67
2023-04-01T04:36:43.241Z,45.45
2023-04-01T04:37:43.281Z,45.96
2023-04-01T04:38:43.304Z,45.99
2023-04-01T04:39:43.359Z,44.83
2023-04-01T04:40:43.381Z,45.35
2023-04-01T04:41:43.435Z,44.89
2023-04-01T04:42:43.491Z,43.42
2023-04-01T04:43:43.554Z,44.59
2023-04-01T04:44:43.556Z,45.51
2023-04-01T04:45:43.620Z,43.18
2023-04-01T04:46:43.634Z,45.17
2023-04-01T04:47:43.698Z,43.80
2023-04-01T04:48:43.688Z,44.41
2023-04-01T04:49:43.737Z,47.31
2023-04-01T04:50:43.756Z,46.39
2023-04-01T04:51:43.813Z,46.74
2023-04-01T04:52:43.872Z,46.49
2023-04-01T04:53:43.950Z,44.69
2023-04-01T04:54:43.993Z,47.69
2023-04-01T04:55:44.015Z,45.34
2023-04-01T04:56:44.017Z,42.79
2023-04-01T04:57:44.057Z,45.68
2023-04-01T04:58:44.116Z,43.24
2023-04-01T04:59:44.136Z,42.64
2023-04-01T05:00:44.196Z,42.73
2023-04-01T05:01:44.432Z,43.58
2023-04-01T05:02:44.334Z,46.03
2023-04-01T05:03:44.333Z,44.71
2023-04-01T05:04:44.357Z,44.18
2023-04-01T05:05:44.409Z,44.76
2023-04-01T05:06:44.432Z,47.36
2023-04-01T05:07:44.481Z,46.65
2023-04-01T05:08:44.510Z,46.23
2023-04-01T05:09:44.543Z,45.02
2023-04-01T05:10:44.572Z,45.03
2023-04-01T05:11:44.639Z,44.24
2023-04-01T05:12:44.665Z,45.90
2023-04-01T05:13:44.683Z,44.43
2023-04-01T05:14:44.840Z,45.93
2023-04-01T05:15:44.794Z,44.40
2023-04-01T05:16:44.861Z,45.05
2023-04-01T05:17:44.898Z,43.68
2023-04-01T05:18:44.849Z,44.63
2023-04-01T05:19:44.967Z,42.66
2023-04-01T05:20:44.948Z,42.81
2023-04-01T05:21:45.010Z,44.62
2023-04-01T05:22:45.053Z,45.21
2023-04-01T05:23:45.123Z,44.01
2023-04-01T05:24:45.117Z,45.57
2023-04-01T05:25:45.181Z,45.16
2023-04-01T05:26:45.227Z,43.81
2023-04-01T05:27:45.228Z,43.25
2023-04-01T05:28:45.307Z,42.94
2023-04-01T05:29:45.348Z,43.30
2023-04-01T05:30:45.445Z,44.33
2023-04-01T05:31:45.412Z,44.79
2023-04-01T05:32:45.494Z,43.48
2023-04-01T05:33:45.522Z,40.73
2023-04-01T05:34:45.553Z,44.93
2023-04-01T05:35:45.645Z,44.94
2023-04-01T05:36:45.620Z,45.31
2023-04-01T05:37:45.648Z,43.41
2023-04-01T05:38:45.690Z,44.85
2023-04-01T05:39:45.715Z,46.05
2023-04-01T05:40:45.773Z,44.70
2023-04-01T05:41:45.833Z,43.33
2023-04-01T05:42:45.822Z,43.77
2023-04-01T05:43:45.910Z,45.09
2023-04-01T05:44:45.955Z,42.99
2023-04-01T05:45:45.984Z,43.66
2023-04-01T05:46:46.041Z,44.51
2023-04-01T05:47:46.127Z,45.22
2023-04-01T05:48:46.140Z,44.65
2023-04-01T05:49:46.183Z,41.02
2023-04-01T05:50:46.206Z,43.26
2023-04-01T05:51:46.234Z,44.01
2023-04-01T05:52:46.262Z,43.50
2023-04-01T05:53:46.334Z,42.02
2023-04-01T05:54:46.355Z,42.83
2023-04-01T05:55:46.398Z,41.37
2023-04-01T05:56:48.301Z,41.03
2023-04-01T05:57:46.425Z,43.43
2023-04-01T05:58:46.516Z,41.17
2023-04-01T05:59:46.539Z,40.54
2023-04-01T06:00:47.771Z,41.79
2023-04-01T06:01:46.614Z,44.98
2023-04-01T06:02:46.627Z,41.12
2023-04-01T06:03:46.796Z,42.28
2023-04-01T06:04:46.741Z,43.36
2023-04-01T06:05:46.763Z,41.51
2023-04-01T06:06:46.781Z,41.78
2023-04-01T06:07:46.794Z,41.32
2023-04-01T06:08:46.819Z,42.92
2023-04-01T06:09:46.922Z,42.73
2023-04-01T06:10:46.893Z,42.46
2023-04-01T06:11:46.956Z,43.43
2023-04-01T06:12:47.025Z,41.16
2023-04-01T06:13:46.994Z,40.79
2023-04-01T06:14:47.042Z,39.86
2023-04-01T06:15:47.046Z,42.89
2023-04-01T06:16:47.081Z,40.87
2023-04-01T06:17:47.176Z,42.37
2023-04-01T06:18:47.173Z,43.54
2023-04-01T06:19:47.264Z,44.10
2023-04-01T06:20:47.263Z,43.14
2023-04-01T06:21:47.331Z,43.49
2023-04-01T06:22:47.301Z,42.15
2023-04-01T06:23:47.368Z,44.07
2023-04-01T06:24:47.383Z,41.35
2023-04-01T06:25:47.421Z,40.30
2023-04-01T06:26:47.439Z,41.79
2023-04-01T06:27:47.508Z,40.65
2023-04-01T06:28:47.510Z,42.72
2023-04-01T06:29:47.539Z,41.83
2023-04-01T06:30:47.624Z,40.13
2023-04-01T06:31:47.643Z,42.00
2023-04-01T06:32:47.734Z,40.61
2023-04-01T06:33:47.653Z,38.66
2023-04-01T06:34:47.688Z,39.69
2023-04-01T06:35:47.760Z,42.66
2023-04-01T06:36:47.788Z,42.31
2023-04-01T06:37:47.808Z,42.46
2023-04-01T06:38:47.783Z,39.95
2023-04-01T06:39:47.850Z,42.04
2023-04-01T06:40:47.900Z,43.16
2023-04-01T06:41:48.021Z,40.33
2023-04-01T06:42:47.944Z,41.57
2023-04-01T06:43:47.975Z,39.34
2023-04-01T06:44:48.021Z,41.29
2023-04-01T06:45:48.205Z,40.08
2023-04-01T06:46:48.105Z,40.97
2023-04-01T06:47:48.087Z,42.25
2023-04-01T06:48:48.088Z,40.65
2023-04-01T06:49:48.128Z,41.99
2023-04-01T06:50:48.152Z,42.32
2023-04-01T06:51:48.211Z,41.70
2023-04-01T06:52:48.269Z,41.83
2023-04-01T06:53:48.262Z,41.65
2023-04-01T06:54:48.317Z,40.31
2023-04-01T06:55:48.353Z,42.21
2023-04-01T06:56:48.408Z,39.90
2023-04-01T06:57:48.376Z,42.56
2023-04-01T06:58:48.393Z,41.40
2023-04-01T06:59:48.458Z,39.10
2023-04-01T07:00:48.469Z,40.83
2023-04-01T07:01:48.608Z,39.45
2023-04-01T07:02:48.601Z,39.66
2023-04-01T07:03:48.555Z,37.84
2023-04-01T07:04:48.633Z,37.71
2023-04-01T07:05:48.612Z,39.80
2023-04-01T07:06:55.591Z,37.27
2023-04-01T07:07:48.649Z,37.66
2023-04-01T07:08:48.618Z,37.91
2023-04-01T07:09:48.605Z,37.75
2023-04-01T07:10:48.639Z,38.22
2023-04-01T07:11:48.644Z,36.83
2023-04-01T07:12:48.606Z,36.17
2023-04-01T07:13:48.613Z,37.43
2023-04-01T07:14:48.564Z,37.50
2023-04-01T07:15:48.678Z,34.10
2023-04-01T07:16:48.683Z,34.90
2023-04-01T07:17:48.610Z,37.21
2023-04-01T07:18:48.595Z,35.37
2023-04-01T07:19:48.527Z,36.05
2023-04-01T07:20:48.548Z,33.88
2023-04-01T07:21:48.527Z,33.89
2023-04-01T07:22:48.516Z,34.12
2023-04-01T07:23:48.523Z,33.80
2023-04-01T07:24:48.535Z,32.85
2023-04-01T07:25:48.516Z,33.76
2023-04-01T07:26:48.469Z,33.71
2023-04-01T07:27:48.490Z,32.84
2023-04-01T07:28:48.503Z,32.65
2023-04-01T07:29:48.505Z,31.01
2023-04-01T07:30:48.475Z,30.96
2023-04-01T07:31:48.447Z,32.47
2023-04-01T07:32:48.537Z,32.35
2023-04-01T07:33:48.437Z,32.21
2023-04-01T07:34:48.454Z,30.05
2023-04-01T07:35:48.445Z,31.42
2023-04-01T07:36:48.418Z,32.35
2023-04-01T07:37:48.434Z,28.02
2023-04-01T07:38:48.447Z,28.39
2023-04-01T07:39:48.359Z,31.02
2023-04-01T07:40:48.392Z,27.01
2023-04-01T07:41:48.380Z,28.19
2023-04-01T07:42:48.405Z,29.56
2023-04-01T07:43:48.365Z,27.79
2023-04-01T07:44:48.335Z,28.20
2023-04-01T07:45:48.339Z,28.05
2023-04-01T07:46:48.346Z,28.02
2023-04-01T07:47:48.450Z,29.33
2023-04-01T07:48:48.323Z,27.41
2023-04-01T07:49:48.322Z,27.29
2023-04-01T07:50:49.486Z,27.92
2023-04-01T07:51:48.302Z,29.08
2023-04-01T07:52:48.318Z,27.24
2023-04-01T07:53:48.312Z,26.74
2023-04-01T07:54:48.278Z,30.11
2023-04-01T07:55:48.334Z,28.08
2023-04-01T07:56:48.333Z,29.28
2023-04-01T07:57:48.353Z,31.31
2023-04-01T07:58:48.368Z,28.32
2023-04-01T07:59:48.366Z,29.03
2023-04-01T08:00:48.419Z,28.80
2023-04-01T08:01:48.408Z,28.68
2023-04-01T08:02:48.467Z,26.57
2023-04-01T08:03:48.665Z,29.00
2023-04-01T08:04:48.524Z,28.34
2023-04-01T08:05:48.472Z,27.60
2023-04-01T08:06:48.517Z,29.16
2023-04-01T08:07:48.536Z,27.31
2023-04-01T08:08:48.561Z,27.44
2023-04-01T08:09:48.565Z,26.59
2023-04-01T08:10:48.600Z,26.30
2023-04-01T08:11:48.651Z,25.95
2023-04-01T08:12:48.652Z,26.71
2023-04-01T08:13:48.672Z,28.05
2023-04-01T08:14:48.665Z,26.93
2023-04-01T08:15:48.687Z,25.52
2023-04-01T08:16:48.675Z,28.89
2023-04-01T08:17:48.704Z,26.30
2023-04-01T08:18:48.696Z,26.45
2023-04-01T08:19:48.726Z,27.62
2023-04-01T08:20:48.774Z,27.40
2023-04-01T08:21:48.731Z,25.67
2023-04-01T08:22:48.764Z,27.41
2023-04-01T08:23:48.826Z,27.73
2023-04-01T08:24:48.830Z,29.18
2023-04-01T08:25:48.793Z,27.94
2023-04-01T08:26:48.864Z,27.25
2023-04-01T08:27:48.849Z,26.42
2023-04-01T08:28:48.856Z,25.33
2023-04-01T08:29:48.907Z,28.69
2023-04-01T08:30:48.870Z,27.18
2023-04-01T08:31:48.973Z,25.03
2023-04-01T08:32:48.962Z,25.74
2023-04-01T08:33:48.919Z,28.71
2023-04-01T08:34:48.963Z,25.47
2023-04-01T08:35:48.966Z,26.93
2023-04-01T08:36:48.952Z,25.75
2023-04-01T08:37:48.963Z,25.20
2023-04-01T08:38:48.988Z,25.87
2023-04-01T08:39:48.996Z,25.63
2023-04-01T08:40:48.984Z,29.09
2023-04-01T08:41:49.002Z,26.03
2023-04-01T08:42:49.022Z,26.62
2023-04-01T08:43:48.995Z,25.00
2023-04-01T08:44:49.031Z,25.24
2023-04-01T08:45:49.069Z,28.03
2023-04-01T08:46:49.120Z,27.33
2023-04-01T08:47:49.119Z,27.72
2023-04-01T08:48:49.030Z,26.79
2023-04-01T08:49:49.111Z,26.71
2023-04-01T08:50:49.050Z,26.04
2023-04-01T08:51:49.049Z,26.93
2023-04-01T08:52:49.048Z,26.01
2023-04-01T08:53:49.032Z,25.15
2023-04-01T08:54:49.044Z,27.93
2023-04-01T08:55:49.045Z,28.28
2023-04-01T08:56:49.106Z,28.19
2023-04-01T08:57:50.489Z,26.27
2023-04-01T08:58:49.077Z,27.01
2023-04-01T08:59:49.040Z,27.33
2023-04-01T09:00:49.078Z,27.14
2023-04-01T09:01:49.039Z,27.62
2023-04-01T09:02:49.181Z,26.10
2023-04-01T09:03:49.178Z,28.62
2023-04-01T09:04:49.085Z,25.91
2023-04-01T09:05:49.122Z,25.19
2023-04-01T09:06:49.088Z,26.37
2023-04-01T09:07:49.090Z,26.80
2023-04-01T09:08:49.100Z,27.01
2023-04-01T09:09:49.065Z,26.47
2023-04-01T09:10:49.113Z,26.97
2023-04-01T09:11:50.292Z,25.30
2023-04-01T09:12:49.217Z,25.00
2023-04-01T09:13:49.131Z,25.15
2023-04-01T09:14:49.165Z,25.29
2023-04-01T09:15:49.245Z,28.85
2023-04-01T09:16:49.185Z,25.58
2023-04-01T09:17:49.383Z,28.06
2023-04-01T09:18:49.262Z,27.35
2023-04-01T09:19:49.305Z,26.26
2023-04-01T09:20:49.276Z,26.72
2023-04-01T09:21:49.252Z,26.16
2023-04-01T09:22:49.307Z,27.42
2023-04-01T09:23:49.267Z,25.48
2023-04-01T09:24:49.233Z,26.07
2023-04-01T09:25:49.293Z,27.45
2023-04-01T09:26:49.287Z,25.93
2023-04-01T09:27:49.272Z,26.46
2023-04-01T09:28:49.275Z,26.57
2023-04-01T09:29:49.270Z,25.62
2023-04-01T09:30:49.247Z,25.33
2023-04-01T09:31:49.373Z,25.16
2023-04-01T09:32:49.387Z,26.73
2023-04-01T09:33:49.281Z,26.22
2023-04-01T09:34:49.261Z,25.90
2023-04-01T09:35:49.374Z,25.00
2023-04-01T09:36:49.258Z,27.40
2023-04-01T09:37:49.298Z,27.25
2023-04-01T09:38:49.291Z,27.83
2023-04-01T09:39:49.276Z,27.20
2023-04-01T09:40:49.280Z,29.24
2023-04-01T09:41:49.298Z,27.48
2023-04-01T09:42:49.300Z,27.74
2023-04-01T09:43:49.279Z,28.52
2023-04-01T09:44:49.295Z,27.54
2023-04-01T09:45:49.291Z,26.17
2023-04-01T09:46:49.359Z,27.09
2023-04-01T09:47:49.369Z,28.46
2023-04-01T09:48:49.316Z,29.54
2023-04-01T09:49:49.316Z,28.44
2023-04-01T09:50:49.326Z,28.50
2023-04-01T09:51:49.363Z,30.08
2023-04-01T09:52:49.355Z,29.34
2023-04-01T09:53:49.428Z,28.37
2023-04-01T09:54:49.464Z,28.23
2023-04-01T09:55:49.456Z,27.62
2023-04-01T09:56:49.486Z,28.05
2023-04-01T09:57:49.466Z,28.81
2023-04-01T09:58:49.477Z,26.49
2023-04-01T09:59:49.522Z,28.77
2023-04-01T10:00:50.169Z,25.82
2023-04-01T10:01:49.665Z,25.44
2023-04-01T10:02:49.654Z,25.00
2023-04-01T10:03:49.641Z,28.31
2023-04-01T10:04:49.684Z,27.55
2023-04-01T10:05:49.757Z,27.75
2023-04-01T10:06:49.766Z,26.72
2023-04-01T10:07:49.775Z,25.67
2023-04-01T10:08:49.822Z,27.04
2023-04-01T10:09:49.821Z,26.19
2023-04-01T10:10:49.941Z,25.59
2023-04-01T10:11:49.903Z,26.66
2023-04-01T10:12:49.972Z,27.10
2023-04-01T10:13:49.983Z,26.40
2023-04-01T10:14:50.022Z,25.21
2023-04-01T10:15:50.108Z,28.99
2023-04-01T10:16:51.894Z,27.93
2023-04-01T10:17:57.737Z,30.48
2023-04-01T10:18:50.125Z,30.90
2023-04-01T10:19:50.151Z,31.18
2023-04-01T10:20:50.131Z,31.90
2023-04-01T10:21:50.101Z,30.80
2023-04-01T10:22:50.110Z,29.74
2023-04-01T10:23:50.118Z,29.22
2023-04-01T10:24:50.079Z,29.34
2023-04-01T10:25:50.070Z,29.77
2023-04-01T10:26:50.103Z,26.58
2023-04-01T10:27:50.106Z,26.54
2023-04-01T10:28:50.060Z,26.24
2023-04-01T10:29:50.062Z,25.00
2023-04-01T10:30:50.067Z,26.37
2023-04-01T10:31:50.068Z,26.87
2023-04-01T10:32:50.082Z,26.07
2023-04-01T10:33:50.069Z,30.36
2023-04-01T10:34:50.000Z,29.19
2023-04-01T10:35:50.025Z,27.34
2023-04-01T10:36:50.001Z,28.42
2023-04-01T10:37:49.993Z,30.12
2023-04-01T10:38:50.071Z,31.43
2023-04-01T10:39:50.125Z,30.69
2023-04-01T10:40:50.193Z,31.88
2023-04-01T10:41:50.247Z,32.54
2023-04-01T10:42:50.275Z,31.87
2023-04-01T10:43:50.355Z,33.46
2023-04-01T10:44:50.382Z,33.32
2023-04-01T10:45:50.513Z,31.82
2023-04-01T10:46:50.531Z,31.29
2023-04-01T10:47:50.591Z,31.58
2023-04-01T10:48:51.199Z,29.91
2023-04-01T10:49:50.750Z,31.76
2023-04-01T10:50:50.751Z,34.37
2023-04-01T10:51:50.807Z,34.61
2023-04-01T10:52:50.873Z,33.86
2023-04-01T10:53:50.939Z,33.09
2023-04-01T10:54:51.002Z,35.25
2023-04-01T10:55:51.052Z,35.11
2023-04-01T10:56:51.215Z,36.71
2023-04-01T10:57:51.170Z,34.24
2023-04-01T10:58:51.245Z,33.54
2023-04-01T10:59:51.302Z,33.38
2023-04-01T11:00:51.409Z,34.46
2023-04-01T11:02:03.888Z,37.06
2023-04-01T11:02:52.488Z,37.21
2023-04-01T11:03:51.498Z,37.15
2023-04-01T11:04:51.376Z,37.08
2023-04-01T11:05:51.377Z,36.41
2023-04-01T11:06:51.394Z,35.81
2023-04-01T11:08:04.765Z,35.68
2023-04-01T11:08:52.370Z,35.87
2023-04-01T11:09:51.356Z,35.96
2023-04-01T11:10:51.366Z,36.32
2023-04-01T11:11:51.313Z,34.07
2023-04-01T11:12:51.324Z,34.52
2023-04-01T11:13:51.319Z,35.76
2023-04-01T11:14:51.346Z,34.93
2023-04-01T11:15:51.369Z,35.36
2023-04-01T11:16:51.315Z,35.64
2023-04-01T11:17:51.387Z,36.16
2023-04-01T11:18:51.379Z,37.10
2023-04-01T11:19:51.496Z,33.86
2023-04-01T11:20:51.487Z,31.69
2023-04-01T11:21:51.515Z,34.07
2023-04-01T11:22:51.590Z,33.65
2023-04-01T11:24:03.948Z,34.15
2023-04-01T11:24:52.590Z,34.17
2023-04-01T11:25:51.629Z,31.60
2023-04-01T11:26:51.767Z,29.97
2023-04-01T11:27:51.597Z,28.12
2023-04-01T11:28:51.598Z,24.89
2023-04-01T11:30:51.624Z,29.71
2023-04-01T11:31:51.672Z,30.60
2023-04-01T11:32:51.629Z,29.48
2023-04-01T11:33:51.526Z,26.17
2023-04-01T11:34:51.577Z,25.75
2023-04-01T11:35:51.613Z,28.61
2023-04-01T11:36:51.769Z,34.42
2023-04-01T11:37:51.663Z,25.80
2023-04-01T11:38:51.756Z,28.01
2023-04-01T11:39:51.819Z,34.10
2023-04-01T11:40:51.838Z,34.48
2023-04-01T11:41:51.835Z,32.15
2023-04-01T11:42:51.883Z,31.28
2023-04-01T11:43:51.980Z,33.55
2023-04-01T11:44:51.950Z,38.61
2023-04-01T11:45:52.040Z,32.86
2023-04-01T11:46:52.048Z,33.64
2023-04-01T11:47:52.125Z,30.22
2023-04-01T11:48:52.120Z,29.57
2023-04-01T11:49:52.123Z,25.87
2023-04-01T11:50:52.192Z,25.98
2023-04-01T11:51:52.198Z,30.96
2023-04-01T11:52:52.239Z,31.66
2023-04-01T11:53:52.278Z,27.69
2023-04-01T11:54:52.298Z,29.77
2023-04-01T11:55:52.331Z,30.79
2023-04-01T11:56:52.424Z,32.19
2023-04-01T11:57:52.379Z,30.51
2023-04-01T11:58:52.417Z,31.08
2023-04-01T11:59:52.494Z,32.89
2023-04-01T12:00:52.605Z,34.86
2023-04-01T12:01:52.533Z,32.11
2023-04-01T12:02:52.728Z,34.24
2023-04-01T12:03:52.765Z,29.28
2023-04-01T12:04:52.731Z,33.15
2023-04-01T12:05:52.713Z,37.72
2023-04-01T12:06:52.727Z,36.07
2023-04-01T12:07:52.777Z,36.06
2023-04-01T12:08:52.781Z,36.60
2023-04-01T12:09:52.835Z,37.07
2023-04-01T12:10:52.846Z,29.04
2023-04-01T12:11:52.888Z,31.31
2023-04-01T12:13:00.791Z,36.74
2023-04-01T12:13:53.889Z,36.91
2023-04-01T12:14:52.905Z,36.78
2023-04-01T12:15:52.883Z,36.58
2023-04-01T12:16:52.882Z,34.66
2023-04-01T12:17:53.144Z,37.22
2023-04-01T12:18:52.846Z,38.81
2023-04-01T12:19:52.878Z,35.78
2023-04-01T12:20:52.855Z,34.41
2023-04-01T12:21:52.817Z,34.82
2023-04-01T12:22:52.842Z,37.01
2023-04-01T12:23:52.836Z,36.94
2023-04-01T12:24:52.834Z,36.13
2023-04-01T12:25:52.805Z,36.34
2023-04-01T12:26:52.815Z,38.29
2023-04-01T12:27:52.827Z,36.94
2023-04-01T12:28:52.832Z,35.57
2023-04-01T12:29:52.763Z,32.10
2023-04-01T12:30:52.773Z,34.58
2023-04-01T12:31:52.895Z,34.77
2023-04-01T12:32:52.835Z,34.72
2023-04-01T12:33:52.836Z,38.78
2023-04-01T12:34:52.860Z,36.83
2023-04-01T12:35:52.905Z,38.07
2023-04-01T12:36:52.897Z,33.58
2023-04-01T12:37:52.939Z,38.54
2023-04-01T12:38:52.941Z,37.67
2023-04-01T12:39:52.949Z,39.72
2023-04-01T12:40:53.018Z,36.95
2023-04-01T12:41:52.995Z,35.51
2023-04-01T12:42:53.069Z,37.42
2023-04-01T12:43:53.068Z,37.72
2023-04-01T12:44:53.075Z,41.57
2023-04-01T12:45:53.133Z,41.29
2023-04-01T12:46:53.102Z,35.44
2023-04-01T12:47:53.158Z,36.49
2023-04-01T12:48:54.831Z,35.66
2023-04-01T12:49:53.221Z,41.61
2023-04-01T12:50:53.255Z,33.60
2023-04-01T12:51:53.240Z,36.76
2023-04-01T12:52:53.250Z,36.80
2023-04-01T12:53:53.266Z,36.91